WAT464 LQSA-LTBJ
Flight info
| Callsign | WAT464 |
|---|---|
| Flight time | N/A |
| Altitude | 39000 |
| Route | MITNO DCT VABEK UL603 OLOTA DCT RUGAS DCT PEREN UN128 RIKSO |
| Aircraft | A319/M-SDE3FGHIRWY/LB1 |
Departure
| Time | 2026-04-21 14:57 |
|---|---|
| Airport | Sarajevo International Airport (LQSA) |
Arrival
| Time | N/A |
|---|---|
| Airport | Adnan Menderes International Airport (LTBJ) |
| Time | Latitude | Longitude | Altitude | Speed | Heading |
|---|---|---|---|---|---|
| 2026-04-21 14:31 | 43.82516 | 18.33690 | 1687 ft | 0 kts | 28° |
| 2026-04-21 14:49 | 43.82506 | 18.33682 | 1688 ft | 4 kts | 33° |
| 2026-04-21 14:50 | 43.82491 | 18.33668 | 1690 ft | 4 kts | 44° |
| 2026-04-21 14:50 | 43.82472 | 18.33628 | 1690 ft | 4 kts | 79° |
| 2026-04-21 14:50 | 43.82472 | 18.33592 | 1688 ft | 4 kts | 108° |
| 2026-04-21 14:50 | 43.82477 | 18.33576 | 1687 ft | 0 kts | 116° |
| 2026-04-21 14:52 | 43.82477 | 18.33577 | 1687 ft | 0 kts | 116° |
| 2026-04-21 14:52 | 43.82473 | 18.33588 | 1688 ft | 2 kts | 116° |
| 2026-04-21 14:52 | 43.82464 | 18.33610 | 1689 ft | 4 kts | 118° |
| 2026-04-21 14:53 | 43.82449 | 18.33649 | 1685 ft | 6 kts | 117° |
| 2026-04-21 14:53 | 43.82429 | 18.33702 | 1686 ft | 7 kts | 117° |
| 2026-04-21 14:53 | 43.82405 | 18.33766 | 1689 ft | 8 kts | 117° |
| 2026-04-21 14:53 | 43.82383 | 18.33827 | 1688 ft | 7 kts | 117° |
| 2026-04-21 14:54 | 43.82363 | 18.33880 | 1693 ft | 6 kts | 117° |
| 2026-04-21 14:54 | 43.82347 | 18.33921 | 1692 ft | 4 kts | 118° |
| 2026-04-21 14:54 | 43.82338 | 18.33945 | 1695 ft | 2 kts | 118° |
| 2026-04-21 14:54 | 43.82327 | 18.33976 | 1695 ft | 5 kts | 117° |
| 2026-04-21 14:55 | 43.82308 | 18.34026 | 1698 ft | 8 kts | 117° |
| 2026-04-21 14:55 | 43.82275 | 18.34113 | 1700 ft | 13 kts | 117° |
| 2026-04-21 14:55 | 43.82229 | 18.34236 | 1704 ft | 15 kts | 117° |
| 2026-04-21 14:55 | 43.82178 | 18.34371 | 1707 ft | 16 kts | 117° |
| 2026-04-21 14:56 | 43.82124 | 18.34517 | 1711 ft | 17 kts | 117° |
| 2026-04-21 14:56 | 43.82050 | 18.34620 | 1713 ft | 15 kts | 165° |
| 2026-04-21 14:56 | 43.81955 | 18.34588 | 1716 ft | 13 kts | 212° |
| 2026-04-21 14:56 | 43.81965 | 18.34467 | 1713 ft | 16 kts | 297° |
| 2026-04-21 14:57 | 43.82080 | 18.34159 | 1707 ft | 72 kts | 297° |
| 2026-04-21 14:57 | 43.82426 | 18.33240 | 1688 ft | 140 kts | 297° |
| 2026-04-21 14:57 | 43.82936 | 18.31904 | 1970 ft | 165 kts | 299° |
| 2026-04-21 14:57 | 43.83499 | 18.30506 | 2623 ft | 169 kts | 306° |
| 2026-04-21 14:58 | 43.84523 | 18.29816 | 3256 ft | 170 kts | 5° |
| 2026-04-21 14:58 | 43.85566 | 18.30579 | 3817 ft | 180 kts | 46° |
| 2026-04-21 14:58 | 43.86294 | 18.32097 | 4248 ft | 199 kts | 57° |
| 2026-04-21 14:58 | 43.87138 | 18.33757 | 4609 ft | 225 kts | 52° |
| 2026-04-21 14:59 | 43.88090 | 18.35479 | 5572 ft | 223 kts | 51° |
| 2026-04-21 14:59 | 43.89036 | 18.37175 | 6568 ft | 224 kts | 51° |
| 2026-04-21 14:59 | 43.90003 | 18.38903 | 7389 ft | 229 kts | 51° |
| 2026-04-21 14:59 | 43.90994 | 18.40674 | 8207 ft | 235 kts | 50° |
| 2026-04-21 15:00 | 43.92000 | 18.42480 | 9049 ft | 239 kts | 50° |
| 2026-04-21 15:00 | 43.92921 | 18.44439 | 9865 ft | 248 kts | 64° |
| 2026-04-21 15:00 | 43.93375 | 18.46811 | 10399 ft | 268 kts | 84° |
| 2026-04-21 15:00 | 43.93368 | 18.49514 | 10778 ft | 293 kts | 90° |
| 2026-04-21 15:01 | 43.93313 | 18.52421 | 11337 ft | 307 kts | 90° |
| 2026-04-21 15:01 | 43.93256 | 18.55417 | 12108 ft | 315 kts | 90° |
| 2026-04-21 15:01 | 43.93202 | 18.58485 | 12896 ft | 321 kts | 89° |
| 2026-04-21 15:01 | 43.93152 | 18.61612 | 13674 ft | 327 kts | 89° |
| 2026-04-21 15:02 | 43.93106 | 18.64798 | 14382 ft | 333 kts | 89° |
| 2026-04-21 15:02 | 43.93060 | 18.68050 | 15083 ft | 340 kts | 89° |
| 2026-04-21 15:02 | 43.93002 | 18.71353 | 15745 ft | 347 kts | 92° |
| 2026-04-21 15:02 | 43.92616 | 18.74685 | 16377 ft | 354 kts | 105° |
| 2026-04-21 15:03 | 43.91766 | 18.77992 | 16582 ft | 376 kts | 115° |
| 2026-04-21 15:03 | 43.90702 | 18.81386 | 16909 ft | 391 kts | 115° |
| 2026-04-21 15:03 | 43.89607 | 18.84880 | 17514 ft | 399 kts | 115° |
| 2026-04-21 15:03 | 43.88512 | 18.88388 | 18152 ft | 404 kts | 116° |
| 2026-04-21 15:04 | 43.87374 | 18.92039 | 18735 ft | 410 kts | 116° |
| 2026-04-21 15:04 | 43.86255 | 18.95636 | 19331 ft | 414 kts | 116° |
| 2026-04-21 15:04 | 43.85115 | 18.99308 | 19978 ft | 417 kts | 116° |
| 2026-04-21 15:04 | 43.83960 | 19.03018 | 20610 ft | 421 kts | 116° |
| 2026-04-21 15:05 | 43.82792 | 19.06754 | 21211 ft | 426 kts | 116° |
| 2026-04-21 15:05 | 43.80409 | 19.14359 | 22374 ft | 435 kts | 116° |
| 2026-04-21 15:05 | 43.79199 | 19.18215 | 22960 ft | 439 kts | 116° |
| 2026-04-21 15:06 | 43.77965 | 19.22093 | 23559 ft | 441 kts | 119° |
| 2026-04-21 15:06 | 43.76437 | 19.25765 | 24038 ft | 440 kts | 129° |
| 2026-04-21 15:06 | 43.74601 | 19.29159 | 24498 ft | 442 kts | 132° |
| 2026-04-21 15:06 | 43.72729 | 19.32566 | 24964 ft | 447 kts | 131° |
| 2026-04-21 15:07 | 43.70848 | 19.36002 | 25372 ft | 452 kts | 131° |
| 2026-04-21 15:07 | 43.68946 | 19.39477 | 25811 ft | 455 kts | 131° |
| 2026-04-21 15:07 | 43.67026 | 19.42981 | 26246 ft | 458 kts | 131° |
| 2026-04-21 15:07 | 43.65097 | 19.46497 | 26674 ft | 461 kts | 131° |
| 2026-04-21 15:08 | 43.63150 | 19.50038 | 27082 ft | 465 kts | 131° |
| 2026-04-21 15:08 | 43.61189 | 19.53604 | 27485 ft | 468 kts | 131° |
| 2026-04-21 15:08 | 43.59214 | 19.57195 | 27918 ft | 471 kts | 131° |
| 2026-04-21 15:08 | 43.57221 | 19.60804 | 28312 ft | 475 kts | 131° |
| 2026-04-21 15:09 | 43.55211 | 19.64435 | 28735 ft | 478 kts | 131° |
| 2026-04-21 15:09 | 43.53187 | 19.68088 | 29170 ft | 482 kts | 131° |
| 2026-04-21 15:09 | 43.51148 | 19.71771 | 29578 ft | 485 kts | 131° |
| 2026-04-21 15:09 | 43.49093 | 19.75476 | 29981 ft | 489 kts | 131° |
| 2026-04-21 15:10 | 43.47021 | 19.79206 | 30320 ft | 492 kts | 131° |
| 2026-04-21 15:10 | 43.44937 | 19.82959 | 30656 ft | 494 kts | 131° |
| 2026-04-21 15:10 | 43.42841 | 19.86727 | 30957 ft | 497 kts | 130° |
| 2026-04-21 15:10 | 43.40735 | 19.90510 | 31277 ft | 499 kts | 130° |
| 2026-04-21 15:11 | 43.38617 | 19.94311 | 31629 ft | 501 kts | 130° |
| 2026-04-21 15:11 | 43.36495 | 19.98114 | 32082 ft | 500 kts | 130° |
| 2026-04-21 15:11 | 43.34381 | 20.01892 | 32597 ft | 498 kts | 130° |
| 2026-04-21 15:11 | 43.32275 | 20.05648 | 33114 ft | 495 kts | 130° |
| 2026-04-21 15:12 | 43.30176 | 20.09387 | 33627 ft | 493 kts | 130° |
| 2026-04-21 15:12 | 43.28084 | 20.13109 | 34122 ft | 491 kts | 130° |
| 2026-04-21 15:12 | 43.25998 | 20.16815 | 34518 ft | 490 kts | 130° |
| 2026-04-21 15:12 | 43.23914 | 20.20517 | 34915 ft | 489 kts | 130° |
| 2026-04-21 15:13 | 43.22538 | 20.22958 | 35168 ft | 488 kts | 130° |
| 2026-04-21 15:13 | 43.19764 | 20.27876 | 35652 ft | 487 kts | 130° |
| 2026-04-21 15:13 | 43.17719 | 20.31496 | 35975 ft | 486 kts | 130° |
| 2026-04-21 15:13 | 43.15648 | 20.35154 | 36284 ft | 486 kts | 130° |
| 2026-04-21 15:14 | 43.13574 | 20.38811 | 36559 ft | 486 kts | 130° |
| 2026-04-21 15:14 | 43.11495 | 20.42472 | 36821 ft | 487 kts | 130° |
| 2026-04-21 15:14 | 43.09417 | 20.46130 | 37109 ft | 487 kts | 130° |
| 2026-04-21 15:14 | 43.07339 | 20.49783 | 37379 ft | 487 kts | 130° |
| 2026-04-21 15:15 | 43.05255 | 20.53444 | 37627 ft | 488 kts | 130° |
| 2026-04-21 15:15 | 43.03169 | 20.57105 | 37888 ft | 488 kts | 130° |
| 2026-04-21 15:15 | 43.01075 | 20.60761 | 38159 ft | 488 kts | 132° |
| 2026-04-21 15:15 | 42.98769 | 20.64137 | 38413 ft | 485 kts | 140° |
| 2026-04-21 15:16 | 42.96326 | 20.67317 | 38656 ft | 485 kts | 140° |
| 2026-04-21 15:16 | 42.93885 | 20.70497 | 38853 ft | 485 kts | 140° |
| 2026-04-21 15:16 | 42.91447 | 20.73679 | 38997 ft | 485 kts | 140° |
| 2026-04-21 15:16 | 42.89831 | 20.75788 | 39032 ft | 485 kts | 140° |
| 2026-04-21 15:17 | 42.84953 | 20.82158 | 39043 ft | 485 kts | 139° |
| 2026-04-21 15:17 | 42.80080 | 20.88509 | 39051 ft | 485 kts | 140° |
| 2026-04-21 15:18 | 42.75201 | 20.94835 | 39051 ft | 484 kts | 140° |
| 2026-04-21 15:18 | 42.70316 | 21.01150 | 39056 ft | 485 kts | 140° |
| 2026-04-21 15:19 | 42.65425 | 21.07467 | 39062 ft | 485 kts | 140° |
| 2026-04-21 15:19 | 42.60528 | 21.13767 | 39051 ft | 485 kts | 140° |
| 2026-04-21 15:20 | 42.55637 | 21.20067 | 39065 ft | 484 kts | 140° |
| 2026-04-21 15:20 | 42.50751 | 21.26346 | 39070 ft | 484 kts | 140° |
| 2026-04-21 15:21 | 42.45858 | 21.32604 | 39065 ft | 483 kts | 140° |
| 2026-04-21 15:21 | 42.40971 | 21.38836 | 39059 ft | 483 kts | 140° |
| 2026-04-21 15:22 | 42.36083 | 21.45068 | 39035 ft | 483 kts | 140° |
| 2026-04-21 15:22 | 42.31189 | 21.51293 | 39031 ft | 483 kts | 140° |
| 2026-04-21 15:23 | 42.26283 | 21.57510 | 39027 ft | 483 kts | 140° |
| 2026-04-21 15:23 | 42.21381 | 21.63722 | 39028 ft | 484 kts | 140° |
| 2026-04-21 15:24 | 42.16570 | 21.70078 | 39036 ft | 485 kts | 139° |
| 2026-04-21 15:24 | 42.11839 | 21.76464 | 39037 ft | 485 kts | 138° |
| 2026-04-21 15:25 | 42.07057 | 21.82857 | 39016 ft | 484 kts | 139° |
| 2026-04-21 15:25 | 42.02250 | 21.89192 | 39023 ft | 484 kts | 139° |
| 2026-04-21 15:26 | 41.97431 | 21.95513 | 39015 ft | 484 kts | 139° |
| 2026-04-21 15:26 | 41.92621 | 22.01826 | 39009 ft | 484 kts | 139° |
| 2026-04-21 15:27 | 41.87801 | 22.08149 | 38994 ft | 484 kts | 139° |
| 2026-04-21 15:27 | 41.82983 | 22.14458 | 38981 ft | 484 kts | 139° |
| 2026-04-21 15:28 | 41.78164 | 22.20754 | 38984 ft | 484 kts | 139° |
| 2026-04-21 15:28 | 41.73343 | 22.27036 | 38990 ft | 484 kts | 139° |
| 2026-04-21 15:29 | 41.68517 | 22.33308 | 38989 ft | 484 kts | 139° |
| 2026-04-21 15:29 | 41.63686 | 22.39566 | 38985 ft | 483 kts | 140° |
| 2026-04-21 15:30 | 41.58863 | 22.45814 | 38977 ft | 483 kts | 139° |
| 2026-04-21 15:30 | 41.54034 | 22.52051 | 38964 ft | 483 kts | 140° |
| 2026-04-21 15:31 | 41.49208 | 22.58273 | 38967 ft | 482 kts | 140° |
| 2026-04-21 15:31 | 41.44381 | 22.64483 | 38953 ft | 482 kts | 140° |
| 2026-04-21 15:32 | 41.39548 | 22.70686 | 38955 ft | 482 kts | 140° |
| 2026-04-21 15:32 | 41.34716 | 22.76876 | 38945 ft | 482 kts | 140° |
| 2026-04-21 15:33 | 41.30269 | 22.83514 | 38923 ft | 486 kts | 132° |
| 2026-04-21 15:33 | 41.26007 | 22.90486 | 38925 ft | 486 kts | 132° |
| 2026-04-21 15:34 | 41.21730 | 22.97437 | 38923 ft | 486 kts | 132° |
| 2026-04-21 15:34 | 41.17448 | 23.04384 | 38920 ft | 486 kts | 132° |
| 2026-04-21 15:35 | 41.13169 | 23.11338 | 38924 ft | 486 kts | 132° |
| 2026-04-21 15:35 | 41.08878 | 23.18273 | 38922 ft | 486 kts | 132° |
| 2026-04-21 15:36 | 41.04588 | 23.25195 | 38920 ft | 486 kts | 132° |
| 2026-04-21 15:36 | 41.00295 | 23.32114 | 38922 ft | 486 kts | 132° |
| 2026-04-21 15:37 | 40.96001 | 23.39016 | 38917 ft | 485 kts | 133° |
| 2026-04-21 15:37 | 40.91705 | 23.45888 | 38926 ft | 484 kts | 133° |
| 2026-04-21 15:38 | 40.87413 | 23.52751 | 38927 ft | 484 kts | 133° |
| 2026-04-21 15:38 | 40.83123 | 23.59605 | 38927 ft | 484 kts | 133° |
| 2026-04-21 15:39 | 40.78834 | 23.66440 | 38922 ft | 483 kts | 133° |
| 2026-04-21 15:39 | 40.74539 | 23.73260 | 38923 ft | 483 kts | 133° |
| 2026-04-21 15:40 | 40.70244 | 23.80080 | 38932 ft | 483 kts | 133° |
| 2026-04-21 15:40 | 40.65946 | 23.86874 | 38921 ft | 482 kts | 133° |
| 2026-04-21 15:41 | 40.61643 | 23.93653 | 38923 ft | 482 kts | 133° |
| 2026-04-21 15:41 | 40.57615 | 24.00661 | 38933 ft | 485 kts | 127° |
| 2026-04-21 15:42 | 40.53803 | 24.07959 | 38928 ft | 484 kts | 127° |
| 2026-04-21 15:42 | 40.49983 | 24.15251 | 38934 ft | 484 kts | 127° |
| 2026-04-21 15:43 | 40.46155 | 24.22521 | 38938 ft | 484 kts | 127° |
| 2026-04-21 15:43 | 40.42318 | 24.29776 | 38941 ft | 484 kts | 127° |
| 2026-04-21 15:44 | 40.38481 | 24.37036 | 38945 ft | 484 kts | 127° |
| 2026-04-21 15:44 | 40.34641 | 24.44293 | 38925 ft | 484 kts | 127° |
| 2026-04-21 15:45 | 40.30797 | 24.51526 | 38936 ft | 483 kts | 127° |
| 2026-04-21 15:45 | 40.26952 | 24.58750 | 38945 ft | 483 kts | 127° |
| 2026-04-21 15:46 | 40.23109 | 24.65964 | 38944 ft | 483 kts | 128° |
| 2026-04-21 15:46 | 40.19262 | 24.73160 | 38943 ft | 482 kts | 128° |
| 2026-04-21 15:47 | 40.15406 | 24.80337 | 38945 ft | 482 kts | 128° |
| 2026-04-21 15:47 | 40.11553 | 24.87500 | 38944 ft | 482 kts | 128° |
| 2026-04-21 15:48 | 40.07697 | 24.94661 | 38930 ft | 482 kts | 128° |
| 2026-04-21 15:48 | 40.03833 | 25.01812 | 38922 ft | 482 kts | 128° |
| 2026-04-21 15:49 | 39.99967 | 25.08947 | 38912 ft | 481 kts | 128° |
| 2026-04-21 15:49 | 39.96096 | 25.16077 | 38908 ft | 481 kts | 128° |
| 2026-04-21 15:50 | 39.92148 | 25.23109 | 38908 ft | 479 kts | 135° |
| 2026-04-21 15:50 | 39.87363 | 25.28943 | 38906 ft | 474 kts | 143° |
| 2026-04-21 15:51 | 39.82394 | 25.34576 | 38926 ft | 474 kts | 143° |
| 2026-04-21 15:51 | 39.77637 | 25.40611 | 37793 ft | 488 kts | 137° |
| 2026-04-21 15:52 | 39.75293 | 25.43858 | 36463 ft | 496 kts | 136° |
| 2026-04-21 15:52 | 39.72971 | 25.47156 | 35759 ft | 489 kts | 135° |
| 2026-04-21 15:52 | 39.71449 | 25.49344 | 35573 ft | 479 kts | 135° |
| 2026-04-21 15:52 | 39.68510 | 25.53553 | 34813 ft | 470 kts | 136° |
| 2026-04-21 15:53 | 39.66317 | 25.56662 | 34243 ft | 464 kts | 136° |
| 2026-04-21 15:53 | 39.64136 | 25.59724 | 33673 ft | 459 kts | 136° |
| 2026-04-21 15:53 | 39.61978 | 25.62725 | 33122 ft | 452 kts | 136° |
| 2026-04-21 15:53 | 39.59843 | 25.65683 | 32603 ft | 446 kts | 136° |
| 2026-04-21 15:54 | 39.57734 | 25.68604 | 32073 ft | 444 kts | 136° |
| 2026-04-21 15:54 | 39.55634 | 25.71516 | 31554 ft | 443 kts | 136° |
| 2026-04-21 15:54 | 39.53549 | 25.74408 | 31047 ft | 441 kts | 136° |
| 2026-04-21 15:54 | 39.51461 | 25.77307 | 30541 ft | 439 kts | 136° |
| 2026-04-21 15:55 | 39.49380 | 25.80193 | 30045 ft | 438 kts | 136° |